sensor_id;sensor_type;location;lat;lon;timestamp;pressure;altitude;pressure_sealevel;temperature;humidity
51245;BME280;37840;47.562;18.738;2024-02-15T00:01:03;100443.47;;;6.41;85.18
51245;BME280;37840;47.562;18.738;2024-02-15T00:03:30;100433.69;;;6.43;83.71
51245;BME280;37840;47.562;18.738;2024-02-15T00:05:57;100430.00;;;6.47;85.67
51245;BME280;37840;47.562;18.738;2024-02-15T00:08:23;100436.34;;;6.43;86.13
51245;BME280;37840;47.562;18.738;2024-02-15T00:10:50;100437.13;;;6.45;86.86
51245;BME280;37840;47.562;18.738;2024-02-15T00:13:16;100444.16;;;6.46;87.02
51245;BME280;37840;47.562;18.738;2024-02-15T00:15:43;100441.50;;;6.46;86.63
51245;BME280;37840;47.562;18.738;2024-02-15T00:18:09;100444.22;;;6.45;86.71
51245;BME280;37840;47.562;18.738;2024-02-15T00:20:34;100441.63;;;6.43;86.59
51245;BME280;37840;47.562;18.738;2024-02-15T00:23:00;100441.41;;;6.48;86.87
51245;BME280;37840;47.562;18.738;2024-02-15T00:25:26;100445.75;;;6.50;86.82
51245;BME280;37840;47.562;18.738;2024-02-15T00:27:52;100439.66;;;6.48;87.42
51245;BME280;37840;47.562;18.738;2024-02-15T00:30:18;100439.66;;;6.48;87.32
51245;BME280;37840;47.562;18.738;2024-02-15T00:32:44;100443.22;;;6.47;87.74
51245;BME280;37840;47.562;18.738;2024-02-15T00:35:11;100448.50;;;6.47;86.37
51245;BME280;37840;47.562;18.738;2024-02-15T00:37:40;100444.16;;;6.46;86.20
51245;BME280;37840;47.562;18.738;2024-02-15T00:40:07;100444.16;;;6.46;86.28
51245;BME280;37840;47.562;18.738;2024-02-15T00:42:33;100435.34;;;6.46;86.97
51245;BME280;37840;47.562;18.738;2024-02-15T00:44:59;100441.56;;;6.45;88.03
51245;BME280;37840;47.562;18.738;2024-02-15T00:47:25;100436.41;;;6.42;89.01
51245;BME280;37840;47.562;18.738;2024-02-15T00:49:51;100444.22;;;6.45;89.02
51245;BME280;37840;47.562;18.738;2024-02-15T00:52:17;100430.84;;;6.48;88.21
51245;BME280;37840;47.562;18.738;2024-02-15T00:54:46;100436.03;;;6.51;87.67
51245;BME280;37840;47.562;18.738;2024-02-15T00:57:12;100440.37;;;6.52;86.78
51245;BME280;37840;47.562;18.738;2024-02-15T00:59:38;100438.47;;;6.56;86.57
51245;BME280;37840;47.562;18.738;2024-02-15T01:02:04;100439.41;;;6.55;86.12
51245;BME280;37840;47.562;18.738;2024-02-15T01:04:31;100434.03;;;6.56;85.91
51245;BME280;37840;47.562;18.738;2024-02-15T01:06:57;100434.19;;;6.53;84.92
51245;BME280;37840;47.562;18.738;2024-02-15T01:09:22;100432.44;;;6.52;85.21
51245;BME280;37840;47.562;18.738;2024-02-15T01:11:48;100435.88;;;6.54;85.39
51245;BME280;37840;47.562;18.738;2024-02-15T01:14:15;100434.19;;;6.53;85.51
51245;BME280;37840;47.562;18.738;2024-02-15T01:16:44;100434.13;;;6.55;85.33
51245;BME280;37840;47.562;18.738;2024-02-15T01:19:10;100423.41;;;6.58;85.11
51245;BME280;37840;47.562;18.738;2024-02-15T01:21:36;100428.84;;;6.55;85.34
51245;BME280;37840;47.562;18.738;2024-02-15T01:24:02;100438.47;;;6.56;85.43
51245;BME280;37840;47.562;18.738;2024-02-15T01:26:32;100429.59;;;6.57;84.74
51245;BME280;37840;47.562;18.738;2024-02-15T01:28:58;100434.03;;;6.56;84.82
51245;BME280;37840;47.562;18.738;2024-02-15T01:31:24;100433.19;;;6.56;85.70
51245;BME280;37840;47.562;18.738;2024-02-15T01:33:50;100435.22;;;6.49;85.94
51245;BME280;37840;47.562;18.738;2024-02-15T01:36:17;100430.78;;;6.49;85.59
51245;BME280;37840;47.562;18.738;2024-02-15T01:38:44;100429.94;;;6.49;86.22
51245;BME280;37840;47.562;18.738;2024-02-15T01:41:10;100431.06;;;6.43;87.14
51245;BME280;37840;47.562;18.738;2024-02-15T01:43:37;100431.19;;;6.40;87.12
51245;BME280;37840;47.562;18.738;2024-02-15T01:46:08;100426.13;;;6.36;86.98
51245;BME280;37840;47.562;18.738;2024-02-15T01:48:36;100423.37;;;6.37;86.63
51245;BME280;37840;47.562;18.738;2024-02-15T01:51:03;100428.69;;;6.37;86.29
51245;BME280;37840;47.562;18.738;2024-02-15T01:53:30;100419.16;;;6.33;86.45
51245;BME280;37840;47.562;18.738;2024-02-15T01:55:57;100428.75;;;6.36;85.88
51245;BME280;37840;47.562;18.738;2024-02-15T01:58:26;100420.84;;;6.36;85.86
51245;BME280;37840;47.562;18.738;2024-02-15T02:00:53;100414.62;;;6.37;85.36
51245;BME280;37840;47.562;18.738;2024-02-15T02:03:21;100418.25;;;6.34;84.87
51245;BME280;37840;47.562;18.738;2024-02-15T02:05:47;100420.84;;;6.36;84.96
51245;BME280;37840;47.562;18.738;2024-02-15T02:08:13;100422.59;;;6.35;84.90
51245;BME280;37840;47.562;18.738;2024-02-15T02:10:39;100414.75;;;6.33;84.82
51245;BME280;37840;47.562;18.738;2024-02-15T02:13:06;100413.81;;;6.35;85.24
51245;BME280;37840;47.562;18.738;2024-02-15T02:15:32;100419.00;;;6.38;84.86
51245;BME280;37840;47.562;18.738;2024-02-15T02:18:00;100415.41;;;6.39;85.14
51245;BME280;37840;47.562;18.738;2024-02-15T02:20:26;100414.62;;;6.37;84.29
51245;BME280;37840;47.562;18.738;2024-02-15T02:23:07;100411.06;;;6.38;84.48
51245;BME280;37840;47.562;18.738;2024-02-15T02:25:33;100407.53;;;6.37;84.28
51245;BME280;37840;47.562;18.738;2024-02-15T02:28:00;100411.78;;;6.41;84.09
51245;BME280;37840;47.562;18.738;2024-02-15T02:30:26;100408.12;;;6.44;83.44
51245;BME280;37840;47.562;18.738;2024-02-15T02:32:56;100409.00;;;6.44;82.59
51245;BME280;37840;47.562;18.738;2024-02-15T02:35:23;100402.06;;;6.42;82.34
51245;BME280;37840;47.562;18.738;2024-02-15T02:37:49;100409.87;;;6.45;82.42
51245;BME280;37840;47.562;18.738;2024-02-15T02:40:15;100411.72;;;6.43;82.28
51245;BME280;37840;47.562;18.738;2024-02-15T02:42:53;100404.59;;;6.45;82.11
51245;BME280;37840;47.562;18.738;2024-02-15T02:45:22;100408.12;;;6.44;82.22
51245;BME280;37840;47.562;18.738;2024-02-15T02:47:52;100407.22;;;6.45;82.56
51245;BME280;37840;47.562;18.738;2024-02-15T02:50:19;100407.06;;;6.48;82.34
51245;BME280;37840;47.562;18.738;2024-02-15T02:52:45;100407.00;;;6.49;82.17
51245;BME280;37840;47.562;18.738;2024-02-15T02:55:14;100402.72;;;6.47;82.24
51245;BME280;37840;47.562;18.738;2024-02-15T02:57:41;100405.44;;;6.45;82.27
51245;BME280;37840;47.562;18.738;2024-02-15T03:00:09;100411.78;;;6.41;82.54
51245;BME280;37840;47.562;18.738;2024-02-15T03:02:39;100407.44;;;6.40;82.80
51245;BME280;37840;47.562;18.738;2024-02-15T03:05:05;100408.53;;;6.35;82.33
51245;BME280;37840;47.562;18.738;2024-02-15T03:07:34;100404.56;;;6.24;82.95
51245;BME280;37840;47.562;18.738;2024-02-15T03:10:01;100404.72;;;6.21;82.88
51245;BME280;37840;47.562;18.738;2024-02-15T03:12:30;100409.25;;;6.18;83.08
51245;BME280;37840;47.562;18.738;2024-02-15T03:14:56;100411.25;;;6.12;83.17
51245;BME280;37840;47.562;18.738;2024-02-15T03:17:23;100406.22;;;6.06;83.34
51245;BME280;37840;47.562;18.738;2024-02-15T03:19:49;100407.13;;;6.05;83.32
51245;BME280;37840;47.562;18.738;2024-02-15T03:22:15;100406.22;;;6.06;83.55
51245;BME280;37840;47.562;18.738;2024-02-15T03:24:41;100407.75;;;6.12;83.55
51245;BME280;37840;47.562;18.738;2024-02-15T03:27:08;100404.97;;;6.15;83.81
51245;BME280;37840;47.562;18.738;2024-02-15T03:29:36;100402.31;;;6.15;84.73
51245;BME280;37840;47.562;18.738;2024-02-15T03:32:02;100406.75;;;6.15;83.38
51245;BME280;37840;47.562;18.738;2024-02-15T03:34:30;100404.91;;;6.17;83.76
51245;BME280;37840;47.562;18.738;2024-02-15T03:36:57;100408.47;;;6.16;83.37
51245;BME280;37840;47.562;18.738;2024-02-15T03:39:23;100417.22;;;6.16;84.41
51245;BME280;37840;47.562;18.738;2024-02-15T03:41:50;100407.56;;;6.17;84.43
51245;BME280;37840;47.562;18.738;2024-02-15T03:44:18;100405.75;;;6.17;84.34
51245;BME280;37840;47.562;18.738;2024-02-15T03:46:44;100409.19;;;6.19;84.36
51245;BME280;37840;47.562;18.738;2024-02-15T03:49:17;100406.56;;;6.19;84.22
51245;BME280;37840;47.562;18.738;2024-02-15T03:51:43;100414.53;;;6.18;84.87
51245;BME280;37840;47.562;18.738;2024-02-15T03:54:13;100418.81;;;6.20;85.15
51245;BME280;37840;47.562;18.738;2024-02-15T03:56:47;100410.84;;;6.22;85.38
51245;BME280;37840;47.562;18.738;2024-02-15T03:59:13;100406.63;;;6.18;85.43
51245;BME280;37840;47.562;18.738;2024-02-15T04:01:39;100408.50;;;6.14;86.86
51245;BME280;37840;47.562;18.738;2024-02-15T04:04:05;100414.38;;;6.00;88.35
51245;BME280;37840;47.562;18.738;2024-02-15T04:06:31;100413.75;;;5.93;88.62
51245;BME280;37840;47.562;18.738;2024-02-15T04:08:59;100411.31;;;5.89;89.46
51245;BME280;37840;47.562;18.738;2024-02-15T04:11:25;100415.50;;;5.95;89.71
51245;BME280;37840;47.562;18.738;2024-02-15T04:13:51;100412.78;;;5.96;88.32
51245;BME280;37840;47.562;18.738;2024-02-15T04:16:17;100417.16;;;5.97;88.18
51245;BME280;37840;47.562;18.738;2024-02-15T04:18:43;100415.38;;;5.98;88.31
51245;BME280;37840;47.562;18.738;2024-02-15T04:21:11;100423.91;;;6.04;88.48
51245;BME280;37840;47.562;18.738;2024-02-15T04:23:37;100427.34;;;6.06;87.86
51245;BME280;37840;47.562;18.738;2024-02-15T04:26:03;100425.59;;;6.05;88.24
51245;BME280;37840;47.562;18.738;2024-02-15T04:28:29;100417.63;;;6.07;89.56
51245;BME280;37840;47.562;18.738;2024-02-15T04:30:55;100423.66;;;6.10;89.23
51245;BME280;37840;47.562;18.738;2024-02-15T04:33:21;100421.72;;;6.14;89.12
51245;BME280;37840;47.562;18.738;2024-02-15T04:35:47;100411.94;;;6.16;88.67
51245;BME280;37840;47.562;18.738;2024-02-15T04:38:15;100415.34;;;6.20;88.42
51245;BME280;37840;47.562;18.738;2024-02-15T04:40:41;100419.63;;;6.22;88.00
51245;BME280;37840;47.562;18.738;2024-02-15T04:43:07;100413.44;;;6.23;88.40
51245;BME280;37840;47.562;18.738;2024-02-15T04:45:35;100412.50;;;6.24;88.28
51245;BME280;37840;47.562;18.738;2024-02-15T04:48:01;100415.12;;;6.24;88.57
51245;BME280;37840;47.562;18.738;2024-02-15T04:50:29;100420.56;;;6.21;91.31
51245;BME280;37840;47.562;18.738;2024-02-15T04:52:55;100421.59;;;6.17;91.73
51245;BME280;37840;47.562;18.738;2024-02-15T04:55:21;100427.94;;;6.13;91.58
51245;BME280;37840;47.562;18.738;2024-02-15T04:57:49;100430.59;;;6.13;90.93
51245;BME280;37840;47.562;18.738;2024-02-15T05:00:15;100425.31;;;6.13;90.91
51245;BME280;37840;47.562;18.738;2024-02-15T05:02:42;100427.88;;;6.15;90.69
51245;BME280;37840;47.562;18.738;2024-02-15T05:05:10;100428.69;;;6.17;89.89
51245;BME280;37840;47.562;18.738;2024-02-15T05:07:38;100419.16;;;6.12;89.23
51245;BME280;37840;47.562;18.738;2024-02-15T05:10:06;100425.25;;;6.15;89.27
51245;BME280;37840;47.562;18.738;2024-02-15T05:12:33;100425.09;;;6.18;89.02
51245;BME280;37840;47.562;18.738;2024-02-15T05:14:59;100425.16;;;6.16;89.19
51245;BME280;37840;47.562;18.738;2024-02-15T05:17:25;100420.81;;;6.15;89.47
51245;BME280;37840;47.562;18.738;2024-02-15T05:19:54;100432.28;;;6.14;90.09
51245;BME280;37840;47.562;18.738;2024-02-15T05:22:25;100428.88;;;6.12;90.45
51245;BME280;37840;47.562;18.738;2024-02-15T05:24:55;100426.16;;;6.13;91.18
51245;BME280;37840;47.562;18.738;2024-02-15T05:27:21;100432.22;;;6.16;91.22
51245;BME280;37840;47.562;18.738;2024-02-15T05:29:49;100431.31;;;6.17;91.52
51245;BME280;37840;47.562;18.738;2024-02-15T05:32:18;100438.34;;;6.16;92.20
51245;BME280;37840;47.562;18.738;2024-02-15T05:34:46;100428.78;;;6.13;92.12
51245;BME280;37840;47.562;18.738;2024-02-15T05:37:14;100428.78;;;6.13;92.29
51245;BME280;37840;47.562;18.738;2024-02-15T05:39:41;100434.00;;;6.15;92.00
51245;BME280;37840;47.562;18.738;2024-02-15T05:42:07;100433.06;;;6.16;92.10
51245;BME280;37840;47.562;18.738;2024-02-15T05:44:33;100440.16;;;6.16;92.20
51245;BME280;37840;47.562;18.738;2024-02-15T05:47:00;100432.16;;;6.17;92.41
51245;BME280;37840;47.562;18.738;2024-02-15T05:49:26;100435.66;;;6.18;92.41
51245;BME280;37840;47.562;18.738;2024-02-15T05:51:53;100443.63;;;6.16;91.73
51245;BME280;37840;47.562;18.738;2024-02-15T05:54:19;100437.75;;;6.09;92.21
51245;BME280;37840;47.562;18.738;2024-02-15T05:56:45;100442.97;;;6.11;92.38
51245;BME280;37840;47.562;18.738;2024-02-15T05:59:11;100445.47;;;6.14;91.69
51245;BME280;37840;47.562;18.738;2024-02-15T06:01:37;100444.53;;;6.17;91.32
51245;BME280;37840;47.562;18.738;2024-02-15T06:04:04;100447.06;;;6.18;91.29
51245;BME280;37840;47.562;18.738;2024-02-15T06:06:36;100458.69;;;6.14;90.77
51245;BME280;37840;47.562;18.738;2024-02-15T06:09:02;100456.00;;;6.16;91.25
51245;BME280;37840;47.562;18.738;2024-02-15T06:11:30;100460.37;;;6.17;90.85
51245;BME280;37840;47.562;18.738;2024-02-15T06:13:56;100462.88;;;6.20;89.98
51245;BME280;37840;47.562;18.738;2024-02-15T06:16:22;100461.88;;;6.22;90.17
51245;BME280;37840;47.562;18.738;2024-02-15T06:18:47;100457.34;;;6.26;89.51
51245;BME280;37840;47.562;18.738;2024-02-15T06:21:13;100461.50;;;6.31;89.22
51245;BME280;37840;47.562;18.738;2024-02-15T06:23:39;100461.44;;;6.33;89.27
51245;BME280;37840;47.562;18.738;2024-02-15T06:26:06;100464.94;;;6.33;89.36
51245;BME280;37840;47.562;18.738;2024-02-15T06:28:32;100464.94;;;6.33;90.13
51245;BME280;37840;47.562;18.738;2024-02-15T06:31:16;100463.00;;;6.37;90.33
51245;BME280;37840;47.562;18.738;2024-02-15T06:34:01;100465.53;;;6.40;90.54
51245;BME280;37840;47.562;18.738;2024-02-15T06:36:50;100471.53;;;6.44;90.66
51245;BME280;37840;47.562;18.738;2024-02-15T06:39:35;100466.19;;;6.45;90.47
51245;BME280;37840;47.562;18.738;2024-02-15T06:42:04;100470.38;;;6.51;90.46
51245;BME280;37840;47.562;18.738;2024-02-15T06:44:30;100462.38;;;6.52;89.25
51245;BME280;37840;47.562;18.738;2024-02-15T06:46:56;100463.09;;;6.56;89.56
51245;BME280;37840;47.562;18.738;2024-02-15T06:49:23;100470.91;;;6.59;89.72
51245;BME280;37840;47.562;18.738;2024-02-15T06:51:52;100469.84;;;6.63;90.16
51245;BME280;37840;47.562;18.738;2024-02-15T06:54:18;100467.06;;;6.66;90.53
51245;BME280;37840;47.562;18.738;2024-02-15T06:56:45;100471.63;;;6.63;93.02
51245;BME280;37840;47.562;18.738;2024-02-15T06:59:14;100471.56;;;6.64;94.00
51245;BME280;37840;47.562;18.738;2024-02-15T07:01:42;100471.34;;;6.69;93.89
51245;BME280;37840;47.562;18.738;2024-02-15T07:04:09;100481.72;;;6.73;93.61
51245;BME280;37840;47.562;18.738;2024-02-15T07:06:38;100480.75;;;6.76;93.43
51245;BME280;37840;47.562;18.738;2024-02-15T07:09:05;100481.72;;;6.73;94.66
51245;BME280;37840;47.562;18.738;2024-02-15T07:11:33;100480.94;;;6.71;94.26
51245;BME280;37840;47.562;18.738;2024-02-15T07:14:03;100487.34;;;6.66;94.99
51245;BME280;37840;47.562;18.738;2024-02-15T07:16:33;100490.78;;;6.68;94.10
51245;BME280;37840;47.562;18.738;2024-02-15T07:19:00;100489.84;;;6.69;94.07
51245;BME280;37840;47.562;18.738;2024-02-15T07:21:26;100490.66;;;6.71;95.12
51245;BME280;37840;47.562;18.738;2024-02-15T07:23:53;100490.91;;;6.65;97.11
51245;BME280;37840;47.562;18.738;2024-02-15T07:26:23;100493.50;;;6.66;97.07
51245;BME280;37840;47.562;18.738;2024-02-15T07:28:53;100492.44;;;6.70;96.81
51245;BME280;37840;47.562;18.738;2024-02-15T07:31:20;100489.53;;;6.77;97.14
51245;BME280;37840;47.562;18.738;2024-02-15T07:33:50;100487.53;;;6.82;97.36
51245;BME280;37840;47.562;18.738;2024-02-15T07:36:20;100487.41;;;6.85;96.67
51245;BME280;37840;47.562;18.738;2024-02-15T07:38:50;100481.13;;;6.87;95.17
51245;BME280;37840;47.562;18.738;2024-02-15T07:41:17;100476.63;;;6.89;94.33
51245;BME280;37840;47.562;18.738;2024-02-15T07:43:48;100482.84;;;6.88;94.22
51245;BME280;37840;47.562;18.738;2024-02-15T07:46:15;100492.28;;;6.94;94.87
51245;BME280;37840;47.562;18.738;2024-02-15T07:48:45;100477.09;;;6.99;94.29
51245;BME280;37840;47.562;18.738;2024-02-15T07:51:19;100483.94;;;7.03;92.92
51245;BME280;37840;47.562;18.738;2024-02-15T07:53:46;100482.81;;;7.09;92.97
51245;BME280;37840;47.562;18.738;2024-02-15T07:56:13;100487.09;;;7.11;91.89
51245;BME280;37840;47.562;18.738;2024-02-15T07:58:43;100495.19;;;7.08;91.12
51245;BME280;37840;47.562;18.738;2024-02-15T08:01:13;100492.28;;;7.14;91.16
51245;BME280;37840;47.562;18.738;2024-02-15T08:03:40;100489.34;;;7.21;90.00
51245;BME280;37840;47.562;18.738;2024-02-15T08:06:12;100484.84;;;7.23;88.93
51245;BME280;37840;47.562;18.738;2024-02-15T08:08:39;100493.84;;;7.19;88.56
51245;BME280;37840;47.562;18.738;2024-02-15T08:11:07;100488.41;;;7.22;90.45
51245;BME280;37840;47.562;18.738;2024-02-15T08:13:44;100490.94;;;7.25;89.08
51245;BME280;37840;47.562;18.738;2024-02-15T08:16:15;100488.19;;;7.26;89.38
51245;BME280;37840;47.562;18.738;2024-02-15T08:18:44;100489.28;;;7.22;88.93
51245;BME280;37840;47.562;18.738;2024-02-15T08:21:12;100488.56;;;7.19;89.08
51245;BME280;37840;47.562;18.738;2024-02-15T08:23:38;100485.25;;;7.13;91.22
51245;BME280;37840;47.562;18.738;2024-02-15T08:26:04;100490.69;;;7.10;92.30
51245;BME280;37840;47.562;18.738;2024-02-15T08:28:31;100493.97;;;7.15;90.32
51245;BME280;37840;47.562;18.738;2024-02-15T08:30:57;100496.41;;;7.20;89.44
51245;BME280;37840;47.562;18.738;2024-02-15T08:33:24;100496.22;;;7.25;89.10
51245;BME280;37840;47.562;18.738;2024-02-15T08:35:50;100487.34;;;7.26;90.92
51245;BME280;37840;47.562;18.738;2024-02-15T08:38:16;100500.31;;;7.32;90.59
51245;BME280;37840;47.562;18.738;2024-02-15T08:40:43;100500.47;;;7.29;90.01
51245;BME280;37840;47.562;18.738;2024-02-15T08:43:11;100498.50;;;7.32;89.98
51245;BME280;37840;47.562;18.738;2024-02-15T08:45:37;100505.31;;;7.38;89.90
51245;BME280;37840;47.562;18.738;2024-02-15T08:48:03;100506.69;;;7.47;90.01
51245;BME280;37840;47.562;18.738;2024-02-15T08:50:30;100497.75;;;7.49;88.13
51245;BME280;37840;47.562;18.738;2024-02-15T08:52:56;100503.81;;;7.51;87.51
51245;BME280;37840;47.562;18.738;2024-02-15T08:55:22;100503.38;;;7.61;87.03
51245;BME280;37840;47.562;18.738;2024-02-15T08:57:53;100504.66;;;7.71;86.14
51245;BME280;37840;47.562;18.738;2024-02-15T09:00:20;100499.16;;;7.75;85.00
51245;BME280;37840;47.562;18.738;2024-02-15T09:02:46;100495.53;;;7.78;85.79
51245;BME280;37840;47.562;18.738;2024-02-15T09:05:13;100502.41;;;7.82;84.44
51245;BME280;37840;47.562;18.738;2024-02-15T09:07:44;100497.87;;;7.84;79.88
51245;BME280;37840;47.562;18.738;2024-02-15T09:10:14;100503.88;;;7.88;81.35
51245;BME280;37840;47.562;18.738;2024-02-15T09:12:43;100501.16;;;7.89;81.82
51245;BME280;37840;47.562;18.738;2024-02-15T09:15:10;100506.28;;;7.92;84.19
51245;BME280;37840;47.562;18.738;2024-02-15T09:17:37;100497.38;;;7.95;82.66
51245;BME280;37840;47.562;18.738;2024-02-15T09:20:10;100494.56;;;7.98;80.46
51245;BME280;37840;47.562;18.738;2024-02-15T09:25:07;100499.41;;;8.07;80.07
51245;BME280;37840;47.562;18.738;2024-02-15T09:27:34;100495.78;;;8.10;77.46
51245;BME280;37840;47.562;18.738;2024-02-15T09:29:59;100504.34;;;8.15;76.24
51245;BME280;37840;47.562;18.738;2024-02-15T09:32:25;100496.94;;;8.22;76.44
51245;BME280;37840;47.562;18.738;2024-02-15T09:34:51;100504.47;;;8.31;75.49
51245;BME280;37840;47.562;18.738;2024-02-15T09:37:17;100499.72;;;8.37;75.73
51245;BME280;37840;47.562;18.738;2024-02-15T09:39:43;100501.22;;;8.43;75.73
51245;BME280;37840;47.562;18.738;2024-02-15T09:42:09;100508.84;;;8.49;76.28
51245;BME280;37840;47.562;18.738;2024-02-15T09:44:35;100505.13;;;8.53;75.19
51245;BME280;37840;47.562;18.738;2024-02-15T09:47:05;100499.44;;;8.61;73.50
51245;BME280;37840;47.562;18.738;2024-02-15T09:49:38;100501.53;;;8.72;73.87
51245;BME280;37840;47.562;18.738;2024-02-15T09:52:09;100499.81;;;8.71;75.96
51245;BME280;37840;47.562;18.738;2024-02-15T09:54:41;100499.56;;;8.75;73.63
51245;BME280;37840;47.562;18.738;2024-02-15T09:57:11;100501.84;;;8.83;75.77
51245;BME280;37840;47.562;18.738;2024-02-15T09:59:37;100503.41;;;8.87;73.36
51245;BME280;37840;47.562;18.738;2024-02-15T10:02:05;100506.81;;;8.89;76.24
51245;BME280;37840;47.562;18.738;2024-02-15T10:04:39;100496.28;;;8.88;73.34
51245;BME280;37840;47.562;18.738;2024-02-15T10:07:05;100490.59;;;8.95;73.26
51245;BME280;37840;47.562;18.738;2024-02-15T10:09:34;100491.31;;;8.99;74.75
51245;BME280;37840;47.562;18.738;2024-02-15T10:12:03;100485.66;;;9.05;75.10
51245;BME280;37840;47.562;18.738;2024-02-15T10:14:32;100488.22;;;9.07;74.23
51245;BME280;37840;47.562;18.738;2024-02-15T10:17:08;100483.00;;;9.05;74.23
51245;BME280;37840;47.562;18.738;2024-02-15T10:19:38;100480.72;;;9.15;76.06
51245;BME280;37840;47.562;18.738;2024-02-15T10:22:08;100482.28;;;9.19;73.03
51245;BME280;37840;47.562;18.738;2024-02-15T10:24:35;100475.47;;;9.31;71.86
51245;BME280;37840;47.562;18.738;2024-02-15T10:27:01;100483.06;;;9.37;71.64
51245;BME280;37840;47.562;18.738;2024-02-15T10:29:35;100484.47;;;9.44;71.86
51245;BME280;37840;47.562;18.738;2024-02-15T10:32:02;100482.31;;;9.51;72.72
51245;BME280;37840;47.562;18.738;2024-02-15T10:34:29;100482.16;;;9.54;71.00
51245;BME280;37840;47.562;18.738;2024-02-15T10:37:11;100476.50;;;9.60;70.64
51245;BME280;37840;47.562;18.738;2024-02-15T10:39:38;100476.09;;;9.68;69.17
51245;BME280;37840;47.562;18.738;2024-02-15T10:42:06;100477.37;;;9.76;69.08
51245;BME280;37840;47.562;18.738;2024-02-15T10:44:37;100468.56;;;9.76;69.19
51245;BME280;37840;47.562;18.738;2024-02-15T10:47:04;100468.09;;;9.84;69.86
51245;BME280;37840;47.562;18.738;2024-02-15T10:49:36;100470.75;;;9.84;71.97
51245;BME280;37840;47.562;18.738;2024-02-15T10:52:03;100471.63;;;9.84;68.02
51245;BME280;37840;47.562;18.738;2024-02-15T10:57:05;100470.25;;;9.93;69.77
51245;BME280;37840;47.562;18.738;2024-02-15T10:59:34;100468.53;;;9.92;69.08
51245;BME280;37840;47.562;18.738;2024-02-15T11:02:33;100471.44;;;9.87;67.92
51245;BME280;37840;47.562;18.738;2024-02-15T11:05:06;100461.41;;;9.92;68.46
51245;BME280;37840;47.562;18.738;2024-02-15T11:07:36;100459.28;;;9.99;69.01
51245;BME280;37840;47.562;18.738;2024-02-15T11:10:04;100456.34;;;10.04;69.87
51245;BME280;37840;47.562;18.738;2024-02-15T11:12:34;100459.59;;;10.09;70.30
51245;BME280;37840;47.562;18.738;2024-02-15T11:15:00;100457.97;;;10.06;68.68
51245;BME280;37840;47.562;18.738;2024-02-15T11:23:04;100449.22;;;10.04;71.11
51245;BME280;37840;47.562;18.738;2024-02-15T11:25:35;100452.75;;;10.05;69.07
51245;BME280;37840;47.562;18.738;2024-02-15T11:28:38;100450.00;;;10.06;68.66
51245;BME280;37840;47.562;18.738;2024-02-15T11:31:08;100445.38;;;10.10;69.31
51245;BME280;37840;47.562;18.738;2024-02-15T11:33:35;100443.66;;;10.09;69.72
51245;BME280;37840;47.562;18.738;2024-02-15T11:36:06;100447.84;;;10.13;68.40
51245;BME280;37840;47.562;18.738;2024-02-15T11:38:32;100434.41;;;10.16;69.44
51245;BME280;37840;47.562;18.738;2024-02-15T11:41:03;100440.19;;;10.23;69.70
51245;BME280;37840;47.562;18.738;2024-02-15T11:46:23;100433.16;;;10.21;70.38
51245;BME280;37840;47.562;18.738;2024-02-15T11:48:58;100436.44;;;10.27;70.42
51245;BME280;37840;47.562;18.738;2024-02-15T11:51:33;100432.66;;;10.31;69.31
51245;BME280;37840;47.562;18.738;2024-02-15T11:54:05;100429.75;;;10.35;71.04
51245;BME280;37840;47.562;18.738;2024-02-15T11:59:13;100431.44;;;10.36;69.87
51245;BME280;37840;47.562;18.738;2024-02-15T12:01:58;100426.03;;;10.38;72.14
51245;BME280;37840;47.562;18.738;2024-02-15T12:04:43;100421.84;;;10.34;72.00
51245;BME280;37840;47.562;18.738;2024-02-15T12:07:31;100426.31;;;10.33;72.08
51245;BME280;37840;47.562;18.738;2024-02-15T12:10:17;100421.00;;;10.33;70.18
51245;BME280;37840;47.562;18.738;2024-02-15T12:13:02;100419.19;;;10.34;71.12
51245;BME280;37840;47.562;18.738;2024-02-15T12:15:57;100420.91;;;10.35;70.68
51245;BME280;37840;47.562;18.738;2024-02-15T12:18:42;100417.69;;;10.28;70.74
51245;BME280;37840;47.562;18.738;2024-02-15T12:21:09;100417.66;;;10.30;71.99
51245;BME280;37840;47.562;18.738;2024-02-15T12:23:38;100419.87;;;10.37;72.96
51245;BME280;37840;47.562;18.738;2024-02-15T12:26:04;100418.62;;;10.43;74.24
51245;BME280;37840;47.562;18.738;2024-02-15T12:28:31;100412.28;;;10.46;74.35
51245;BME280;37840;47.562;18.738;2024-02-15T12:30:57;100413.63;;;10.53;72.96
51245;BME280;37840;47.562;18.738;2024-02-15T12:33:23;100415.81;;;10.46;71.98
51245;BME280;37840;47.562;18.738;2024-02-15T12:35:50;100418.38;;;10.48;73.02
51245;BME280;37840;47.562;18.738;2024-02-15T12:38:16;100418.62;;;10.43;72.62
51245;BME280;37840;47.562;18.738;2024-02-15T12:40:43;100411.25;;;10.48;71.86
51245;BME280;37840;47.562;18.738;2024-02-15T12:43:12;100408.59;;;10.48;72.96
51245;BME280;37840;47.562;18.738;2024-02-15T12:45:40;100399.78;;;10.48;71.76
51245;BME280;37840;47.562;18.738;2024-02-15T12:48:07;100406.78;;;10.49;73.82
51245;BME280;37840;47.562;18.738;2024-02-15T12:50:34;100403.44;;;10.45;73.14
51245;BME280;37840;47.562;18.738;2024-02-15T12:53:01;100408.75;;;10.45;72.99
51245;BME280;37840;47.562;18.738;2024-02-15T12:55:32;100403.34;;;10.47;72.79
51245;BME280;37840;47.562;18.738;2024-02-15T12:58:03;100400.69;;;10.47;74.90
51245;BME280;37840;47.562;18.738;2024-02-15T13:00:35;100397.97;;;10.48;72.73
51245;BME280;37840;47.562;18.738;2024-02-15T13:03:07;100401.66;;;10.46;71.44
51245;BME280;37840;47.562;18.738;2024-02-15T13:05:37;100393.69;;;10.46;73.99
51245;BME280;37840;47.562;18.738;2024-02-15T13:08:04;100395.47;;;10.45;73.45
51245;BME280;37840;47.562;18.738;2024-02-15T13:10:38;100393.56;;;10.47;72.70